createdAt,value
2018-12-12T00:00:31.941Z,7.70
2018-12-12T00:03:00.729Z,7.70
2018-12-12T00:05:29.364Z,7.70
2018-12-12T00:07:58.067Z,7.70
2018-12-12T00:10:26.729Z,7.70
2018-12-12T00:12:55.455Z,7.70
2018-12-12T00:15:24.518Z,7.70
2018-12-12T00:17:53.733Z,7.70
2018-12-12T00:20:22.354Z,7.70
2018-12-12T00:22:51.215Z,7.70
2018-12-12T00:25:19.889Z,7.70
2018-12-12T00:27:48.757Z,7.70
2018-12-12T00:30:17.585Z,7.70
2018-12-12T00:32:46.516Z,7.70
2018-12-12T00:35:15.486Z,7.70
2018-12-12T00:37:44.098Z,7.70
2018-12-12T00:40:12.840Z,7.70
2018-12-12T00:42:41.412Z,7.70
2018-12-12T00:45:10.305Z,7.70
2018-12-12T00:47:39.124Z,7.80
2018-12-12T00:50:07.996Z,7.70
2018-12-12T00:52:36.648Z,7.80
2018-12-12T00:55:05.308Z,7.70
2018-12-12T00:57:34.486Z,7.70
2018-12-12T01:00:03.376Z,7.80
2018-12-12T01:02:32.047Z,7.70
2018-12-12T01:05:00.703Z,7.70
2018-12-12T01:07:29.388Z,7.70
2018-12-12T01:09:58.060Z,7.70
2018-12-12T01:12:26.651Z,7.70
2018-12-12T01:14:55.405Z,7.70
2018-12-12T01:17:24.026Z,7.70
2018-12-12T01:19:53.226Z,7.80
2018-12-12T01:22:21.725Z,7.70
2018-12-12T01:24:50.397Z,7.70
2018-12-12T01:27:19.227Z,7.70
2018-12-12T01:29:47.802Z,7.70
2018-12-12T01:32:16.328Z,7.70
2018-12-12T01:34:45.217Z,7.70
2018-12-12T01:37:14.204Z,7.70
2018-12-12T01:39:43.071Z,7.80
2018-12-12T01:42:11.765Z,7.80
2018-12-12T01:44:40.342Z,7.80
2018-12-12T01:47:09.022Z,7.80
2018-12-12T01:49:37.902Z,7.80
2018-12-12T01:52:06.650Z,7.80
2018-12-12T01:54:35.435Z,7.70
2018-12-12T01:57:04.212Z,7.80
2018-12-12T01:59:32.965Z,7.80
2018-12-12T02:02:01.652Z,7.80
2018-12-12T02:04:30.258Z,7.80
2018-12-12T02:06:59.265Z,7.80
2018-12-12T02:09:27.915Z,7.80
2018-12-12T02:11:56.448Z,7.80
2018-12-12T02:14:25.154Z,7.80
2018-12-12T02:16:53.676Z,7.80
2018-12-12T02:19:22.280Z,7.80
2018-12-12T02:21:51.003Z,7.80
2018-12-12T02:24:19.651Z,7.80
2018-12-12T02:26:48.305Z,7.80
2018-12-12T02:29:17.055Z,7.80
2018-12-12T02:31:45.838Z,7.80
2018-12-12T02:34:14.680Z,7.80
2018-12-12T02:36:43.300Z,7.80
2018-12-12T02:39:11.825Z,7.80
2018-12-12T02:41:40.420Z,7.80
2018-12-12T02:44:09.032Z,7.80
2018-12-12T02:46:37.881Z,7.80
2018-12-12T02:49:06.712Z,7.80
2018-12-12T02:51:35.531Z,7.80
2018-12-12T02:54:04.155Z,7.80
2018-12-12T02:56:32.811Z,7.80
2018-12-12T02:59:01.545Z,7.80
2018-12-12T03:01:30.195Z,7.80
2018-12-12T03:03:59.053Z,7.80
2018-12-12T03:06:27.606Z,7.80
2018-12-12T03:08:56.192Z,7.80
2018-12-12T03:11:24.956Z,7.80
2018-12-12T03:13:53.969Z,7.80
2018-12-12T03:16:22.896Z,7.80
2018-12-12T03:18:51.822Z,7.80
2018-12-12T03:21:20.500Z,7.80
2018-12-12T03:23:49.085Z,7.80
2018-12-12T03:26:18.054Z,7.80
2018-12-12T03:28:46.897Z,7.80
2018-12-12T03:31:15.461Z,7.80
2018-12-12T03:33:44.229Z,7.80
2018-12-12T03:36:12.906Z,7.80
2018-12-12T03:38:41.748Z,7.80
2018-12-12T03:41:10.458Z,7.80
2018-12-12T03:43:39.203Z,7.80
2018-12-12T03:46:07.832Z,7.80
2018-12-12T03:48:36.620Z,7.80
2018-12-12T03:51:05.284Z,7.80
2018-12-12T03:53:34.027Z,7.80
2018-12-12T03:56:02.861Z,7.90
2018-12-12T03:58:31.478Z,7.80
2018-12-12T04:01:00.257Z,7.80
2018-12-12T04:03:28.906Z,7.80
2018-12-12T04:05:57.481Z,7.80
2018-12-12T04:08:26.260Z,7.80
2018-12-12T04:10:54.834Z,7.80
2018-12-12T04:13:23.397Z,7.80
2018-12-12T04:15:52.031Z,7.90
2018-12-12T04:18:20.761Z,7.80
2018-12-12T04:20:49.449Z,7.90
2018-12-12T04:23:18.021Z,7.90
2018-12-12T04:25:46.898Z,7.90
2018-12-12T04:28:15.629Z,7.90
2018-12-12T04:30:44.314Z,7.90
2018-12-12T04:33:12.876Z,7.90
2018-12-12T04:35:41.603Z,7.90
2018-12-12T04:38:10.452Z,7.90
2018-12-12T04:40:39.210Z,7.90
2018-12-12T04:43:07.925Z,7.90
2018-12-12T04:45:36.585Z,7.90
2018-12-12T04:48:05.265Z,7.90
2018-12-12T04:50:34.241Z,7.90
2018-12-12T04:53:02.776Z,7.90
2018-12-12T04:55:31.536Z,7.90
2018-12-12T04:58:00.498Z,7.90
2018-12-12T05:00:30.067Z,7.90
2018-12-12T05:02:58.757Z,7.90
2018-12-12T05:05:27.497Z,7.90
2018-12-12T05:07:56.018Z,7.90
2018-12-12T05:10:24.829Z,7.90
2018-12-12T05:12:53.373Z,7.90
2018-12-12T05:15:21.925Z,7.90
2018-12-12T05:17:50.681Z,7.90
2018-12-12T05:20:19.429Z,7.90
2018-12-12T05:22:47.946Z,7.90
2018-12-12T05:25:16.549Z,7.90
2018-12-12T05:27:45.535Z,7.90
2018-12-12T05:30:14.243Z,7.90
2018-12-12T05:32:42.765Z,7.90
2018-12-12T05:35:11.484Z,7.90
2018-12-12T05:37:40.206Z,7.90
2018-12-12T05:40:09.328Z,7.90
2018-12-12T05:42:38.093Z,7.90
2018-12-12T05:45:07.126Z,7.90
2018-12-12T05:47:35.946Z,7.90
2018-12-12T05:50:04.838Z,7.90
2018-12-12T05:52:33.483Z,7.90
2018-12-12T05:55:01.995Z,7.90
2018-12-12T05:57:30.610Z,7.90
2018-12-12T05:59:59.310Z,7.90
2018-12-12T06:02:28.052Z,7.90
2018-12-12T06:04:56.905Z,7.90
2018-12-12T06:07:25.656Z,7.90
2018-12-12T06:09:54.251Z,7.90
2018-12-12T06:12:23.026Z,7.90
2018-12-12T06:14:51.740Z,7.90
2018-12-12T06:17:20.720Z,7.90
2018-12-12T06:19:49.751Z,7.90
2018-12-12T06:22:18.911Z,7.90
2018-12-12T06:24:47.462Z,7.90
2018-12-12T06:27:16.197Z,7.90
2018-12-12T06:29:44.868Z,7.90
2018-12-12T06:32:13.440Z,7.80
2018-12-12T06:34:42.030Z,7.80
2018-12-12T06:37:10.805Z,7.80
2018-12-12T06:39:39.620Z,7.80
2018-12-12T06:42:08.387Z,7.80
2018-12-12T06:44:37.155Z,7.80
2018-12-12T06:47:05.815Z,7.80
2018-12-12T06:49:34.441Z,7.80
2018-12-12T06:52:03.155Z,7.80
2018-12-12T06:54:32.028Z,7.80
2018-12-12T06:57:00.751Z,7.80
2018-12-12T06:59:29.418Z,7.80
2018-12-12T07:01:57.952Z,7.80
2018-12-12T07:04:26.563Z,7.80
2018-12-12T07:06:56.044Z,7.80
2018-12-12T07:09:24.925Z,7.80
2018-12-12T07:11:53.654Z,7.80
2018-12-12T07:14:22.330Z,7.80
2018-12-12T07:16:51.144Z,7.70
2018-12-12T07:19:19.970Z,7.80
2018-12-12T07:21:48.825Z,7.70
2018-12-12T07:24:17.446Z,7.70
2018-12-12T07:26:46.006Z,7.70
2018-12-12T07:29:14.878Z,7.70
2018-12-12T07:31:43.571Z,7.70
2018-12-12T07:34:12.270Z,7.70
2018-12-12T07:36:40.812Z,7.70
2018-12-12T07:39:09.684Z,7.70
2018-12-12T07:41:38.382Z,7.70
2018-12-12T07:44:07.168Z,7.60
2018-12-12T07:46:36.565Z,7.60
2018-12-12T07:49:05.892Z,7.60
2018-12-12T07:51:34.487Z,7.60
2018-12-12T07:54:03.210Z,7.60
2018-12-12T07:56:31.987Z,7.60
2018-12-12T07:59:00.762Z,7.60
2018-12-12T08:01:29.408Z,7.60
2018-12-12T08:03:58.059Z,7.60
2018-12-12T08:06:26.841Z,7.60
2018-12-12T08:08:55.519Z,7.60
2018-12-12T08:11:24.140Z,7.60
2018-12-12T08:13:52.686Z,7.60
2018-12-12T08:16:21.482Z,7.60
2018-12-12T08:18:50.138Z,7.60
2018-12-12T08:21:18.702Z,7.50
2018-12-12T08:23:47.389Z,7.50
2018-12-12T08:26:16.073Z,7.50
2018-12-12T08:28:44.637Z,7.50
2018-12-12T08:31:13.294Z,7.50
2018-12-12T08:33:41.897Z,7.60
2018-12-12T08:36:10.627Z,7.70
2018-12-12T08:38:39.308Z,7.70
2018-12-12T08:41:08.084Z,7.70
2018-12-12T08:43:36.775Z,7.60
2018-12-12T08:46:05.466Z,7.60
2018-12-12T08:48:34.016Z,7.60
2018-12-12T08:51:02.572Z,7.60
2018-12-12T08:53:31.287Z,7.60
2018-12-12T08:55:59.989Z,7.60
2018-12-12T08:58:28.582Z,7.60
2018-12-12T09:00:57.236Z,7.60
2018-12-12T09:03:25.828Z,7.60
2018-12-12T09:05:54.721Z,7.60
2018-12-12T09:08:23.549Z,7.60
2018-12-12T09:10:52.254Z,7.60
2018-12-12T09:13:20.995Z,7.60
2018-12-12T09:15:49.761Z,7.60
2018-12-12T09:18:18.502Z,7.70
2018-12-12T09:20:47.324Z,7.70
2018-12-12T09:23:16.184Z,7.70
2018-12-12T09:25:44.839Z,7.70
2018-12-12T09:28:13.518Z,7.60
2018-12-12T09:30:42.220Z,7.70
2018-12-12T09:33:10.934Z,7.60
2018-12-12T09:35:39.643Z,7.60
2018-12-12T09:38:08.320Z,7.60
2018-12-12T09:40:37.154Z,7.60
2018-12-12T09:43:05.997Z,7.60
2018-12-12T09:45:34.553Z,7.60
2018-12-12T09:48:03.432Z,7.60
2018-12-12T09:50:32.385Z,7.60
2018-12-12T09:53:01.197Z,7.70
2018-12-12T09:55:29.785Z,7.70
2018-12-12T09:57:58.851Z,7.70
2018-12-12T10:00:27.755Z,7.70
2018-12-12T10:02:56.310Z,7.70
2018-12-12T10:05:25.312Z,7.60
2018-12-12T10:07:54.029Z,7.70
2018-12-12T10:10:22.990Z,7.70
2018-12-12T10:12:51.647Z,7.70
2018-12-12T10:15:20.319Z,7.70
2018-12-12T10:17:49.012Z,7.70
2018-12-12T10:20:17.646Z,8.00
2018-12-12T10:22:46.563Z,8.00
2018-12-12T10:25:15.229Z,8.00
2018-12-12T10:27:43.875Z,7.90
2018-12-12T10:30:12.466Z,7.90
2018-12-12T10:32:41.459Z,7.90
2018-12-12T10:35:10.241Z,7.90
2018-12-12T10:37:39.126Z,7.90
2018-12-12T10:40:08.018Z,7.90
2018-12-12T10:42:36.910Z,7.90
2018-12-12T10:45:06.605Z,7.90
2018-12-12T10:47:35.503Z,7.90
2018-12-12T10:50:05.389Z,8.00
2018-12-12T10:52:34.121Z,8.00
2018-12-12T10:55:02.884Z,8.00
2018-12-12T10:57:31.598Z,8.00
2018-12-12T11:00:00.273Z,8.10
2018-12-12T11:02:35.064Z,8.10
2018-12-12T11:05:03.958Z,8.10
2018-12-12T11:07:32.655Z,8.10
2018-12-12T11:10:01.339Z,8.00
2018-12-12T11:12:29.969Z,8.00
2018-12-12T11:14:58.998Z,8.00
2018-12-12T11:17:27.652Z,8.00
2018-12-12T11:19:56.398Z,8.00
2018-12-12T11:22:25.206Z,8.00
2018-12-12T11:24:53.865Z,8.10
2018-12-12T11:27:22.455Z,8.10
2018-12-12T11:29:51.351Z,8.00
2018-12-12T11:32:20.163Z,8.10
2018-12-12T11:34:48.683Z,8.10
2018-12-12T11:37:17.230Z,8.10
2018-12-12T11:39:45.920Z,8.10
2018-12-12T11:42:14.718Z,8.10
2018-12-12T11:44:43.430Z,8.10
2018-12-12T11:47:12.092Z,8.00
2018-12-12T11:49:40.832Z,8.00
2018-12-12T11:52:09.588Z,8.00
2018-12-12T11:54:38.371Z,8.00
2018-12-12T11:57:08.148Z,8.00
2018-12-12T11:59:36.702Z,7.90
2018-12-12T12:02:06.045Z,7.90
2018-12-12T12:04:34.940Z,7.90
2018-12-12T12:07:03.513Z,8.00
2018-12-12T12:09:32.212Z,8.00
2018-12-12T12:12:00.956Z,7.90
2018-12-12T12:14:29.760Z,8.00
2018-12-12T12:16:58.562Z,8.00
2018-12-12T12:19:27.354Z,8.00
2018-12-12T12:21:55.945Z,8.00
2018-12-12T12:24:24.699Z,8.00
2018-12-12T12:26:53.381Z,8.00
2018-12-12T12:29:22.155Z,8.00
2018-12-12T12:31:50.690Z,8.00
2018-12-12T12:34:19.590Z,8.00
2018-12-12T12:36:48.521Z,8.00
2018-12-12T12:39:17.059Z,8.00
2018-12-12T12:41:45.757Z,8.00
2018-12-12T12:44:14.601Z,8.00
2018-12-12T12:46:43.340Z,7.90
2018-12-12T12:49:12.144Z,7.90
2018-12-12T12:51:40.754Z,7.90
2018-12-12T12:54:09.315Z,7.90
2018-12-12T12:56:38.009Z,7.90
2018-12-12T12:59:06.753Z,7.90
2018-12-12T13:01:35.519Z,7.80
2018-12-12T13:04:09.476Z,7.90
2018-12-12T13:06:34.934Z,7.90
2018-12-12T13:09:05.553Z,7.80
2018-12-12T13:11:34.092Z,7.80
2018-12-12T13:14:02.734Z,7.80
2018-12-12T13:16:31.422Z,7.80
2018-12-12T13:19:00.188Z,7.80
2018-12-12T13:21:28.726Z,7.80
2018-12-12T13:23:57.652Z,7.80
2018-12-12T13:26:26.390Z,7.90
2018-12-12T13:28:55.034Z,7.80
2018-12-12T13:31:23.774Z,7.80
2018-12-12T13:33:52.368Z,7.80
2018-12-12T13:36:20.979Z,7.70
2018-12-12T13:38:49.553Z,7.70
2018-12-12T13:41:18.068Z,7.70
2018-12-12T13:43:46.742Z,7.70
2018-12-12T13:46:15.292Z,7.70
2018-12-12T13:48:43.790Z,7.70
2018-12-12T13:51:12.315Z,7.70
2018-12-12T13:53:41.100Z,7.70
2018-12-12T13:56:09.769Z,7.60
2018-12-12T13:58:38.282Z,7.60
2018-12-12T14:01:06.852Z,7.60
2018-12-12T14:03:35.487Z,7.60
2018-12-12T14:06:04.406Z,7.60
2018-12-12T14:08:33.094Z,7.60
2018-12-12T14:11:01.790Z,7.50
2018-12-12T14:13:30.486Z,7.50
2018-12-12T14:15:59.171Z,7.40
2018-12-12T14:18:27.934Z,7.40
2018-12-12T14:20:56.702Z,7.30
2018-12-12T14:23:25.399Z,7.30
2018-12-12T14:25:54.052Z,7.30
2018-12-12T14:28:22.716Z,7.20
2018-12-12T14:30:51.397Z,7.20
2018-12-12T14:33:19.944Z,7.10
2018-12-12T14:35:48.549Z,7.10
2018-12-12T14:38:17.256Z,7.10
2018-12-12T14:40:45.789Z,7.10
2018-12-12T14:43:14.344Z,7.10
2018-12-12T14:45:42.887Z,7.10
2018-12-12T14:48:11.589Z,7.10
2018-12-12T14:50:40.344Z,7.10
2018-12-12T14:53:08.935Z,7.00
2018-12-12T14:55:37.489Z,7.00
2018-12-12T14:58:06.338Z,7.00
2018-12-12T15:00:34.942Z,7.00
2018-12-12T15:03:03.614Z,7.00
2018-12-12T15:05:32.375Z,6.90
2018-12-12T15:08:01.182Z,6.90
2018-12-12T15:10:29.953Z,6.90
2018-12-12T15:12:58.740Z,6.90
2018-12-12T15:15:27.631Z,6.90
2018-12-12T15:17:56.336Z,6.90
2018-12-12T15:20:25.332Z,6.80
2018-12-12T15:22:54.103Z,6.80
2018-12-12T15:25:22.724Z,6.80
2018-12-12T15:27:51.462Z,6.80
2018-12-12T15:30:20.254Z,6.70
2018-12-12T15:32:48.973Z,6.70
2018-12-12T15:35:17.825Z,6.70
2018-12-12T15:37:46.402Z,6.70
2018-12-12T15:40:15.128Z,6.70
2018-12-12T15:42:43.785Z,6.70
2018-12-12T15:45:12.679Z,6.70
2018-12-12T15:47:41.382Z,6.70
2018-12-12T15:50:10.281Z,6.70
2018-12-12T15:52:38.853Z,6.70
2018-12-12T15:55:07.400Z,6.70
2018-12-12T15:57:36.046Z,6.70
2018-12-12T16:00:05.575Z,6.70
2018-12-12T16:02:34.222Z,6.70
2018-12-12T16:05:02.803Z,6.60
2018-12-12T16:07:31.537Z,6.60
2018-12-12T16:10:00.286Z,6.60
2018-12-12T16:12:29.086Z,6.90
2018-12-12T16:14:57.715Z,7.00
2018-12-12T16:17:26.341Z,7.00
2018-12-12T16:19:54.869Z,6.90
2018-12-12T16:22:23.464Z,6.80
2018-12-12T16:24:52.194Z,6.80
2018-12-12T16:27:20.981Z,6.70
2018-12-12T16:29:49.658Z,6.60
2018-12-12T16:32:18.221Z,6.60
2018-12-12T16:34:47.061Z,6.60
2018-12-12T16:37:15.803Z,6.50
2018-12-12T16:39:44.577Z,6.60
2018-12-12T16:42:13.174Z,6.60
2018-12-12T16:44:41.871Z,6.50
2018-12-12T16:47:10.511Z,6.50
2018-12-12T16:49:39.055Z,6.40
2018-12-12T16:52:07.805Z,6.40
2018-12-12T16:54:36.321Z,6.40
2018-12-12T16:57:06.227Z,6.40
2018-12-12T16:59:35.000Z,6.40
2018-12-12T17:02:03.737Z,6.30
2018-12-12T17:04:32.304Z,6.20
2018-12-12T17:07:01.085Z,6.20
2018-12-12T17:09:29.775Z,6.20
2018-12-12T17:11:58.526Z,6.20
2018-12-12T17:14:27.232Z,6.20
2018-12-12T17:16:55.830Z,6.20
2018-12-12T17:19:24.310Z,6.20
2018-12-12T17:21:53.095Z,6.20
2018-12-12T17:24:21.876Z,6.20
2018-12-12T17:26:50.475Z,6.20
2018-12-12T17:29:19.375Z,6.20
2018-12-12T17:31:47.951Z,6.10
2018-12-12T17:34:16.828Z,6.20
2018-12-12T17:36:45.464Z,6.10
2018-12-12T17:39:14.067Z,6.10
2018-12-12T17:41:42.594Z,6.10
2018-12-12T17:44:11.298Z,6.10
2018-12-12T17:46:40.170Z,6.10
2018-12-12T17:49:08.858Z,6.10
2018-12-12T17:51:37.631Z,6.10
2018-12-12T17:54:06.442Z,6.00
2018-12-12T17:56:35.413Z,5.90
2018-12-12T17:59:04.128Z,5.90
2018-12-12T18:01:32.842Z,5.80
2018-12-12T18:04:01.617Z,5.90
2018-12-12T18:06:30.393Z,6.00
2018-12-12T18:08:59.347Z,5.90
2018-12-12T18:11:28.263Z,5.90
2018-12-12T18:13:57.008Z,5.80
2018-12-12T18:16:25.732Z,5.80
2018-12-12T18:18:54.646Z,5.80
2018-12-12T18:21:23.516Z,5.80
2018-12-12T18:23:52.321Z,5.80
2018-12-12T18:26:20.945Z,5.90
2018-12-12T18:28:49.610Z,5.90
2018-12-12T18:31:18.336Z,6.00
2018-12-12T18:33:46.976Z,5.80
2018-12-12T18:36:15.739Z,5.80
2018-12-12T18:38:45.241Z,5.70
2018-12-12T18:41:13.783Z,5.60
2018-12-12T18:43:42.378Z,5.60
2018-12-12T18:46:11.242Z,5.50
2018-12-12T18:48:40.007Z,5.40
2018-12-12T18:51:09.080Z,5.40
2018-12-12T18:53:38.016Z,5.40
2018-12-12T18:56:07.085Z,5.40
2018-12-12T18:58:36.054Z,5.40
2018-12-12T19:01:05.141Z,5.40
2018-12-12T19:03:34.259Z,5.40
2018-12-12T19:06:03.418Z,5.40
2018-12-12T19:08:32.443Z,5.40
2018-12-12T19:11:01.435Z,5.40
2018-12-12T19:13:30.643Z,5.30
2018-12-12T19:15:59.735Z,5.30
2018-12-12T19:18:28.726Z,5.30
2018-12-12T19:21:00.172Z,5.30
2018-12-12T19:23:29.309Z,5.30
2018-12-12T19:25:58.364Z,5.30
2018-12-12T19:28:27.466Z,5.30
2018-12-12T19:30:56.488Z,5.40
2018-12-12T19:33:25.575Z,5.40
2018-12-12T19:35:54.662Z,5.40
2018-12-12T19:38:23.888Z,5.40
2018-12-12T19:40:52.958Z,5.40
2018-12-12T19:43:22.033Z,5.30
2018-12-12T19:45:51.553Z,5.30
2018-12-12T19:48:20.554Z,5.30
2018-12-12T19:50:49.509Z,5.20
2018-12-12T19:53:18.399Z,5.20
2018-12-12T19:55:47.431Z,5.20
2018-12-12T19:58:16.406Z,5.20
2018-12-12T20:00:45.247Z,5.20
2018-12-12T20:03:14.405Z,5.10
2018-12-12T20:05:43.594Z,5.10
2018-12-12T20:08:12.816Z,5.10
2018-12-12T20:10:41.735Z,5.10
2018-12-12T20:13:10.906Z,5.10
2018-12-12T20:15:46.778Z,5.00
2018-12-12T20:21:01.039Z,5.10
2018-12-12T20:23:30.112Z,5.00
2018-12-12T20:26:01.517Z,5.00
2018-12-12T20:28:31.069Z,4.90
2018-12-12T20:31:00.303Z,4.90
2018-12-12T20:33:29.376Z,4.80
2018-12-12T20:35:58.210Z,4.80
2018-12-12T20:38:27.368Z,4.80
2018-12-12T20:40:56.312Z,4.80
2018-12-12T20:43:25.449Z,4.80
2018-12-12T20:45:54.631Z,4.80
2018-12-12T20:48:23.841Z,4.80
2018-12-12T20:50:52.836Z,4.70
2018-12-12T20:53:21.791Z,4.70
2018-12-12T20:55:50.742Z,4.70
2018-12-12T20:58:19.788Z,4.70
2018-12-12T21:00:48.881Z,4.60
2018-12-12T21:03:18.019Z,4.70
2018-12-12T21:05:47.160Z,4.70
2018-12-12T21:08:16.186Z,4.70
2018-12-12T21:10:45.379Z,4.70
2018-12-12T21:13:14.272Z,4.70
2018-12-12T21:15:47.685Z,4.80
2018-12-12T21:18:16.737Z,4.70
2018-12-12T21:20:45.865Z,4.80
2018-12-12T21:23:15.001Z,4.70
2018-12-12T21:25:44.393Z,4.70
2018-12-12T21:28:13.362Z,4.80
2018-12-12T21:30:42.473Z,4.80
2018-12-12T21:33:11.567Z,4.80
2018-12-12T21:35:40.634Z,4.80
2018-12-12T21:38:09.836Z,4.80
2018-12-12T21:40:38.844Z,4.80
2018-12-12T21:43:07.936Z,4.70
2018-12-12T21:45:37.009Z,4.80
2018-12-12T21:48:06.241Z,4.80
2018-12-12T21:50:35.429Z,4.80
2018-12-12T21:53:04.443Z,4.80
2018-12-12T21:55:33.572Z,4.80
2018-12-12T21:58:02.648Z,4.80
2018-12-12T22:00:31.593Z,4.80
2018-12-12T22:03:00.607Z,4.80
2018-12-12T22:05:29.672Z,4.80
2018-12-12T22:07:58.626Z,4.80
2018-12-12T22:10:27.824Z,4.80
2018-12-12T22:12:56.897Z,4.80
2018-12-12T22:15:25.881Z,4.80
2018-12-12T22:17:55.197Z,4.90
2018-12-12T22:20:24.058Z,4.80
2018-12-12T22:22:53.130Z,4.80
2018-12-12T22:25:22.082Z,4.80
2018-12-12T22:27:51.163Z,4.80
2018-12-12T22:30:20.237Z,4.80
2018-12-12T22:32:49.227Z,4.70
2018-12-12T22:35:18.234Z,4.70
2018-12-12T22:37:47.323Z,4.80
2018-12-12T22:40:16.369Z,4.80
2018-12-12T22:42:45.304Z,4.70
2018-12-12T22:45:14.429Z,4.70
2018-12-12T22:47:43.534Z,4.70
2018-12-12T22:50:12.441Z,4.70
2018-12-12T22:52:41.407Z,4.70
2018-12-12T22:55:10.370Z,4.70
2018-12-12T22:57:39.469Z,4.70
2018-12-12T23:00:13.964Z,4.60
2018-12-12T23:02:43.040Z,4.60
2018-12-12T23:05:11.994Z,4.60
2018-12-12T23:07:40.970Z,4.60
2018-12-12T23:10:09.988Z,4.60
2018-12-12T23:12:38.937Z,4.60
2018-12-12T23:15:08.269Z,4.60
2018-12-12T23:17:37.239Z,4.60
2018-12-12T23:20:07.085Z,4.60
2018-12-12T23:22:36.257Z,4.60
2018-12-12T23:25:05.336Z,4.60
2018-12-12T23:27:34.227Z,4.60
2018-12-12T23:30:04.469Z,4.60
2018-12-12T23:32:33.565Z,4.60
2018-12-12T23:35:02.600Z,4.60
2018-12-12T23:37:31.876Z,4.50
2018-12-12T23:40:00.909Z,4.60
2018-12-12T23:42:29.840Z,4.60
2018-12-12T23:44:58.918Z,4.60
2018-12-12T23:47:27.842Z,4.60
2018-12-12T23:49:56.846Z,4.50
2018-12-12T23:52:25.813Z,4.60
2018-12-12T23:54:54.825Z,4.50
2018-12-12T23:57:23.834Z,4.50
2018-12-12T23:59:52.775Z,4.60
